Главная страница
METAR-TAF:

METAR-TAF

Аэропорты :

Кадала

Чита, Россия

широта: 52-05N, долгота: 113-29E, высота над уровнем моря: 685 м

Текущие метеонаблюдения

Эта сводка был подготовлена 49 минут назад, в 06:30 UTC
Ветер 2 Узел от восточно-северо-восточный
Температура -24°C
Влажность 69%
Давление 1032 hPa
Видимость: 9000 м

METAR: UIAA 100630Z 07001MPS 9000 NSC M24/M28 Q1032 R29/420150 NOSIG RMK QFE715/0953

Время: 16:19 (07:19 UTC)

Прогноз

Эта сводка был подготовлена 2 часа и 19 минут назад, в 05:00 UTC
Прогноз действительный с 10-го 06 UTC до 11-го 06 UTC
Ветер 6 Узел от восточный
Видимость 10 км и более
временами
С 10-го 09 UTC до 10-го 22 UTC
Видимость: 3100 м
дымка

TAF: UIAA 100500Z 1006/1106 08003MPS 9999 NSC TEMPO 1009/1022 3100 BR

Метеонаблюдения и прогнозы для более 4000 аэропортов (сводки METAR и TAF).

Имеющиеся станции представлены на карте желтыми и красными точками.

Чтобы увидеть название станции, наведите на нее мышь.

Затем щелкните, чтобы увидеть метеонаблюдения и метеопрогнозы.

Управление картой: чтобы увеличить масштаб, щелкните зеленые кнопки с черным крестиком; чтобы уменьшить масштаб, щелкните зеленую кнопку с тире; для просмотра соседних карт щелкайте зеленые стрелки.


METAR-TAF: